Glacier National Park, MT

9:23 PM MDT on July 30, 2014 (GMT -0600)
Cut Bank Municipal (KCTB) Elev 3855 ft | 48.61 °N, 112.38 °W | Change Station

Current weather conditions updated 27 minutes ago

Clear
Clear
74 °F
Feels Like 74 °F
N
10
Wind Variable Wind from WNW

Tomorrow is forecast to be Cooler than today. Isolated thunderstorms.

Today
High -- | Low -- °F
--% Chance of Precip.
Yesterday
High -- | Low -- °F
Precip. -- in
6:05 AM 9:14 PM
Waxing Crescent, 15% visible
Pressure 30.03 in
Visibility 10.0 miles
Clouds Clear
Dew Point 45 °F
Humidity 35%
Rainfall 0.00 in
Snow Depth Not available.
UV 0 out of 12
Pollen 2.20 out of 12
Air Quality Not available.
Flu Activity Not available.
METAR KCTB 310256Z AUTO 30009KT 10SM CLR 23/07 A3012 RMK AO2 SLP168 T02330072 53005

More Conditions Fewer Conditions

Pressure 30.03 in
Visibility 10.0 miles
Clouds Clear
Dew Point 45 °F
Humidity 35%
Rainfall 0.00 in
Snow Depth Not available.
UV 0 out of 12
Pollen 2.20 out of 12
Air Quality Not available.
Flu Activity Not available.
METAR KCTB 310256Z AUTO 30009KT 10SM CLR 23/07 A3012 RMK AO2 SLP168 T02330072 53005

More Conditions Fewer Conditions

10-Day Weather Forecast

Almanac

Astronomy

Jul. 30, 2014 Rise Set
Actual Time 6:05 AM MDT 9:14 PM MDT
Civil Twilight 5:27 AM MDT 9:52 PM MDT
Nautical Twilight 4:38 AM MDT 10:40 PM MDT
Astronomical Twilight 3:36 AM MDT 11:41 PM MDT
Moon 10:03 AM MDT (7/30) 10:34 PM MDT (7/30)
Length of Visible Light 16h 24m
Length of Day
15h 09m
Tomorrow will be 2m 44s shorter.
Waxing Crescent, 15% of the Moon is Illuminated
Today
Waxing Crescent
Aug 3
First Quarter
Aug 10
Full
Aug 17
Last Quarter
Aug 25
New

Today's Extremes

State Highs State Lows

Community

WunderPhotos

Upload Photos

1,739,286 photos uploaded!

Nearby

Snow Depth

Station Depth Elevation
Emery Creek 0 in 4350 ft
Waldron 1 in 5600 ft
Wood Creek 0 in 5960 ft
Daly Creek 0 in 5780 ft
Peterson Meadows 0 in 7200 ft

Earthquake Activity

City Distance Mag. Time & Date
No recent earthquake activity has been reported nearby.
Minimum magnitude displayed is 2.5.

Coastal Water Temperatures

Place Temperature
No Stations Reporting

Nearby Weather Stations

Station Location Temp. Heat Index Dew Point Humidity Wind Precip. Elev Updated Type
MesoWest Two Medicine Bridge US-2 MP 210, Browning, MT 73 °F 77 °F 55 °F 54% NW  at  3 mph 0.00 in / hr 4750 ft 8:10 PM MDT MADIS
HADS WEST GLACIER PARK 1N MT, West Glacier, MT 78 °F 76 °F - - North  at  - 0.00 in / hr 3153 ft 8:45 PM MDT MADIS

Show More Stations Show Fewer Stations